createdAt,value
2022-08-24T00:00:19.134Z,0
2022-08-24T00:01:58.903Z,0
2022-08-24T00:03:38.659Z,0
2022-08-24T00:05:18.427Z,0
2022-08-24T00:06:58.202Z,0
2022-08-24T00:08:37.959Z,0
2022-08-24T00:10:17.730Z,0
2022-08-24T00:11:57.518Z,0
2022-08-24T00:13:37.281Z,0
2022-08-24T00:15:17.038Z,0
2022-08-24T00:16:56.799Z,0
2022-08-24T00:18:36.555Z,0
2022-08-24T00:20:16.328Z,0
2022-08-24T00:21:56.089Z,0
2022-08-24T00:23:35.860Z,0
2022-08-24T00:25:15.622Z,0
2022-08-24T00:26:55.406Z,0
2022-08-24T00:28:35.171Z,0
2022-08-24T00:30:14.921Z,0
2022-08-24T00:31:54.700Z,0
2022-08-24T00:33:34.470Z,0
2022-08-24T00:36:54.012Z,0
2022-08-24T00:38:33.762Z,0
2022-08-24T00:40:13.537Z,0
2022-08-24T00:41:53.321Z,0
2022-08-24T00:43:33.071Z,0
2022-08-24T00:46:52.602Z,0
2022-08-24T00:48:32.366Z,0
2022-08-24T00:50:12.149Z,0
2022-08-24T00:51:51.900Z,0
2022-08-24T00:53:31.677Z,0
2022-08-24T00:55:11.455Z,0
2022-08-24T00:56:51.224Z,0
2022-08-24T00:58:31.006Z,0
2022-08-24T01:00:10.751Z,0
2022-08-24T01:01:50.522Z,0
2022-08-24T01:03:30.279Z,0
2022-08-24T01:05:10.043Z,0
2022-08-24T01:06:49.817Z,0
2022-08-24T01:08:29.588Z,0
2022-08-24T01:10:09.353Z,0
2022-08-24T01:11:49.126Z,0
2022-08-24T01:13:28.897Z,0
2022-08-24T01:15:08.652Z,0
2022-08-24T01:16:48.416Z,0
2022-08-24T01:18:28.187Z,0
2022-08-24T01:20:07.955Z,0
2022-08-24T01:21:47.726Z,0
2022-08-24T01:23:27.501Z,0
2022-08-24T01:25:07.272Z,0
2022-08-24T01:26:47.030Z,0
2022-08-24T01:28:26.794Z,0
2022-08-24T01:30:06.565Z,0
2022-08-24T01:31:46.336Z,0
2022-08-24T01:33:26.098Z,0
2022-08-24T01:35:05.878Z,0
2022-08-24T01:36:45.643Z,0
2022-08-24T01:38:25.396Z,0
2022-08-24T01:40:05.160Z,0
2022-08-24T01:41:44.946Z,0
2022-08-24T01:43:24.711Z,0
2022-08-24T01:45:04.469Z,0
2022-08-24T01:46:44.247Z,0
2022-08-24T01:48:24.018Z,0
2022-08-24T01:50:03.772Z,0
2022-08-24T01:51:43.538Z,0
2022-08-24T01:53:23.321Z,0
2022-08-24T01:55:03.078Z,0
2022-08-24T01:56:42.846Z,0
2022-08-24T01:58:22.626Z,0
2022-08-24T02:00:02.385Z,0
2022-08-24T02:01:42.145Z,0
2022-08-24T02:03:21.904Z,0
2022-08-24T02:05:01.670Z,0
2022-08-24T02:06:41.454Z,0
2022-08-24T02:08:21.212Z,0
2022-08-24T02:11:40.742Z,0
2022-08-24T02:13:20.525Z,0
2022-08-24T02:15:00.289Z,0
2022-08-24T02:16:40.056Z,0
2022-08-24T02:21:39.353Z,0
2022-08-24T02:23:19.118Z,0
2022-08-24T02:24:58.880Z,0
2022-08-24T02:26:38.662Z,0
2022-08-24T02:28:18.425Z,0
2022-08-24T02:29:58.185Z,0
2022-08-24T02:31:37.959Z,0
2022-08-24T02:33:17.723Z,0
2022-08-24T02:34:57.489Z,0
2022-08-24T02:36:37.272Z,0
2022-08-24T02:38:17.035Z,0
2022-08-24T02:39:56.789Z,0
2022-08-24T02:41:36.565Z,0
2022-08-24T02:43:16.335Z,0
2022-08-24T02:44:56.107Z,0
2022-08-24T02:46:35.868Z,0
2022-08-24T02:48:15.625Z,0
2022-08-24T02:49:55.400Z,0
2022-08-24T02:51:35.164Z,0
2022-08-24T02:53:14.930Z,0
2022-08-24T02:54:54.704Z,0
2022-08-24T02:56:34.469Z,0
2022-08-24T02:58:14.240Z,0
2022-08-24T03:01:33.783Z,0
2022-08-24T03:03:13.551Z,0
2022-08-24T03:04:53.313Z,0
2022-08-24T03:06:33.080Z,0
2022-08-24T03:08:12.850Z,0
2022-08-24T03:09:52.650Z,0
2022-08-24T03:11:32.385Z,0
2022-08-24T03:13:12.146Z,0
2022-08-24T03:14:51.919Z,0
2022-08-24T03:16:31.695Z,0
2022-08-24T03:18:11.453Z,0
2022-08-24T03:19:51.224Z,0
2022-08-24T03:21:30.985Z,0
2022-08-24T03:23:10.755Z,0
2022-08-24T03:24:50.529Z,0
2022-08-24T03:26:30.286Z,0
2022-08-24T03:28:10.055Z,0
2022-08-24T03:29:49.848Z,0
2022-08-24T03:31:29.597Z,0
2022-08-24T03:33:09.364Z,0
2022-08-24T03:34:49.120Z,0
2022-08-24T03:36:28.889Z,0
2022-08-24T03:38:08.657Z,0
2022-08-24T03:39:48.423Z,0
2022-08-24T03:41:28.205Z,0
2022-08-24T03:43:07.969Z,0
2022-08-24T03:44:47.717Z,0
2022-08-24T03:46:27.494Z,0
2022-08-24T03:48:07.269Z,0
2022-08-24T03:49:47.028Z,0
2022-08-24T03:51:26.807Z,0
2022-08-24T03:53:06.576Z,0
2022-08-24T03:54:46.335Z,0
2022-08-24T03:56:26.096Z,0
2022-08-24T03:58:05.867Z,0
2022-08-24T04:01:25.398Z,0
2022-08-24T04:03:05.157Z,0
2022-08-24T04:04:44.922Z,0
2022-08-24T04:06:24.696Z,0
2022-08-24T04:08:04.458Z,0
2022-08-24T04:09:44.216Z,0
2022-08-24T04:11:23.972Z,0
2022-08-24T04:13:03.744Z,0
2022-08-24T04:14:43.514Z,0
2022-08-24T04:16:23.269Z,0
2022-08-24T04:18:03.029Z,0
2022-08-24T04:19:42.788Z,0
2022-08-24T04:21:22.556Z,0.51
2022-08-24T04:23:02.340Z,0.51
2022-08-24T04:24:42.095Z,0.77
2022-08-24T04:26:21.867Z,1.03
2022-08-24T04:28:01.664Z,1.29
2022-08-24T04:29:41.386Z,1.54
2022-08-24T04:31:21.161Z,0
2022-08-24T04:33:00.926Z,1.8
2022-08-24T04:34:40.693Z,2.58
2022-08-24T04:36:20.459Z,2.32
2022-08-24T04:38:00.213Z,3.1
2022-08-24T04:39:39.985Z,4.4
2022-08-24T04:41:19.765Z,4.14
2022-08-24T04:42:59.558Z,4.92
2022-08-24T04:44:39.294Z,10.39
2022-08-24T04:46:19.066Z,7.54
2022-08-24T04:47:58.829Z,6.24
2022-08-24T04:49:38.596Z,6.24
2022-08-24T04:51:18.367Z,7.55
2022-08-24T04:52:58.136Z,10.43
2022-08-24T04:54:37.952Z,13.85
2022-08-24T04:56:17.692Z,13.57
2022-08-24T04:57:57.463Z,9.16
2022-08-24T04:59:37.219Z,8.38
2022-08-24T05:01:17.002Z,8.12
2022-08-24T05:02:56.765Z,9.18
2022-08-24T05:04:36.533Z,9.43
2022-08-24T05:06:16.303Z,9.45
2022-08-24T05:07:56.086Z,9.18
2022-08-24T05:09:35.858Z,9.72
2022-08-24T05:11:15.617Z,9.99
2022-08-24T05:12:55.396Z,10.79
2022-08-24T05:14:35.165Z,11.07
2022-08-24T05:16:14.921Z,11.34
2022-08-24T05:17:54.704Z,12.14
2022-08-24T05:19:34.490Z,12.69
2022-08-24T05:21:14.237Z,13.76
2022-08-24T05:22:54.014Z,15.65
2022-08-24T05:24:33.778Z,17.81
2022-08-24T05:27:53.324Z,20.03
2022-08-24T05:31:12.865Z,22.53
2022-08-24T05:32:52.640Z,22.85
2022-08-24T05:34:32.395Z,23.7
2022-08-24T05:36:12.164Z,24.29
2022-08-24T05:37:51.945Z,23.8
2022-08-24T05:39:31.704Z,25.46
2022-08-24T05:42:51.266Z,26.38
2022-08-24T05:44:31.024Z,0
2022-08-24T05:46:10.801Z,67.04
2022-08-24T05:47:50.559Z,71.44
2022-08-24T05:51:10.111Z,78
2022-08-24T05:52:49.888Z,77.76
2022-08-24T05:54:29.639Z,76.5
2022-08-24T05:56:09.426Z,77.98
2022-08-24T05:57:49.226Z,74.24
2022-08-24T05:59:28.949Z,73.01
2022-08-24T06:01:08.736Z,70.92
2022-08-24T06:02:48.506Z,69.83
2022-08-24T06:04:28.270Z,69.96
2022-08-24T06:06:08.031Z,67.64
2022-08-24T06:07:47.813Z,67.47
2022-08-24T06:09:27.585Z,66.44
2022-08-24T06:11:07.353Z,67.4
2022-08-24T06:12:47.155Z,66.58
2022-08-24T06:14:26.915Z,65.99
2022-08-24T06:16:06.666Z,65
2022-08-24T06:17:46.444Z,65.71
2022-08-24T06:19:26.199Z,63.86
2022-08-24T06:21:06.005Z,64.26
2022-08-24T06:22:45.741Z,63.66
2022-08-24T06:24:25.522Z,62.93
2022-08-24T06:26:05.287Z,62.69
2022-08-24T06:27:45.057Z,63.37
2022-08-24T06:29:24.832Z,61.53
2022-08-24T06:31:04.591Z,61.18
2022-08-24T06:34:24.136Z,61.88
2022-08-24T06:36:03.912Z,61.91
2022-08-24T06:37:43.677Z,61
2022-08-24T06:39:23.454Z,61.47
2022-08-24T06:41:03.222Z,59.98
2022-08-24T06:42:42.990Z,59.12
2022-08-24T06:44:22.763Z,59.71
2022-08-24T06:46:02.533Z,60.38
2022-08-24T06:47:42.316Z,58.97
2022-08-24T06:49:22.068Z,58.31
2022-08-24T06:51:01.853Z,58.95
2022-08-24T06:52:41.618Z,58.41
2022-08-24T06:54:21.386Z,59.24
2022-08-24T06:56:01.159Z,57.47
2022-08-24T06:57:40.920Z,56.56
2022-08-24T06:59:20.704Z,56.85
2022-08-24T07:01:00.475Z,57.43
2022-08-24T07:02:40.235Z,56.85
2022-08-24T07:04:20.008Z,57.08
2022-08-24T07:05:59.776Z,56.21
2022-08-24T07:07:39.557Z,54.83
2022-08-24T07:09:19.329Z,56.91
2022-08-24T07:10:59.078Z,54.46
2022-08-24T07:12:38.908Z,54.46
2022-08-24T07:14:18.625Z,55.02
2022-08-24T07:15:58.411Z,55.12
2022-08-24T07:17:38.175Z,53.4
2022-08-24T07:20:57.711Z,54.16
2022-08-24T07:22:37.496Z,53.89
2022-08-24T07:24:17.256Z,53.89
2022-08-24T07:25:57.046Z,54.29
2022-08-24T07:27:36.789Z,52.12
2022-08-24T07:29:16.574Z,53.29
2022-08-24T07:30:56.330Z,52.52
2022-08-24T07:32:36.111Z,58.09
2022-08-24T07:34:15.869Z,54.79
2022-08-24T07:35:55.644Z,55.71
2022-08-24T07:37:35.416Z,53.31
2022-08-24T07:39:15.198Z,53.31
2022-08-24T07:40:54.960Z,50.09
2022-08-24T07:42:34.731Z,50.14
2022-08-24T07:44:14.512Z,50.7
2022-08-24T07:45:54.282Z,54.75
2022-08-24T07:47:34.067Z,53.71
2022-08-24T07:49:13.810Z,52.18
2022-08-24T07:50:53.578Z,51.94
2022-08-24T07:52:33.352Z,51.15
2022-08-24T07:54:13.122Z,50.75
2022-08-24T07:55:52.898Z,50.67
2022-08-24T07:57:32.678Z,50.7
2022-08-24T07:59:12.437Z,50.52
2022-08-24T08:00:52.207Z,49.91
2022-08-24T08:02:31.987Z,49.31
2022-08-24T08:04:11.752Z,50.47
2022-08-24T08:05:51.510Z,43.48
2022-08-24T08:07:31.290Z,51.94
2022-08-24T08:10:50.830Z,49.21
2022-08-24T08:12:30.609Z,50.95
2022-08-24T08:14:10.376Z,51.53
2022-08-24T08:15:50.150Z,43.94
2022-08-24T08:17:29.916Z,50.09
2022-08-24T08:19:09.699Z,46.35
2022-08-24T08:20:49.456Z,53.08
2022-08-24T08:22:29.217Z,52.64
2022-08-24T08:24:08.988Z,50.43
2022-08-24T08:25:48.765Z,47.74
2022-08-24T08:27:28.531Z,49.78
2022-08-24T08:29:08.302Z,49.01
2022-08-24T08:30:48.078Z,46.14
2022-08-24T08:32:27.839Z,49.87
2022-08-24T08:34:07.614Z,46.41
2022-08-24T08:35:47.393Z,51.55
2022-08-24T08:37:27.150Z,49.55
2022-08-24T08:39:06.937Z,50.05
2022-08-24T08:40:46.699Z,48.06
2022-08-24T08:42:26.476Z,46.7
2022-08-24T08:44:06.245Z,50.72
2022-08-24T08:45:46.011Z,48.92
2022-08-24T08:47:25.784Z,47.16
2022-08-24T08:50:45.339Z,51.03
2022-08-24T08:52:25.100Z,48.89
2022-08-24T08:54:04.866Z,46.87
2022-08-24T08:55:44.641Z,0
2022-08-24T08:57:24.398Z,0
2022-08-24T08:59:04.178Z,0
2022-08-24T09:00:43.944Z,0
2022-08-24T09:02:23.717Z,0
2022-08-24T09:04:03.488Z,0
2022-08-24T09:05:43.262Z,0
2022-08-24T09:07:23.014Z,0
2022-08-24T09:09:02.783Z,6.19
2022-08-24T09:10:42.564Z,10.24
2022-08-24T09:12:22.339Z,7.82
2022-08-24T09:14:02.101Z,9.71
2022-08-24T09:15:41.910Z,9.17
2022-08-24T09:17:21.642Z,9.71
2022-08-24T09:20:41.178Z,10.8
2022-08-24T09:22:20.954Z,7.55
2022-08-24T09:24:00.718Z,8.35
2022-08-24T09:25:40.487Z,8.37
2022-08-24T09:27:20.272Z,6.47
2022-08-24T09:30:39.798Z,11.88
2022-08-24T09:32:19.581Z,9.18
2022-08-24T09:33:59.344Z,9.99
2022-08-24T09:35:39.132Z,11.61
2022-08-24T09:37:18.893Z,11.61
2022-08-24T09:40:38.440Z,6.2
2022-08-24T09:42:18.192Z,10.52
2022-08-24T09:43:57.976Z,6.47
2022-08-24T09:45:37.743Z,11.06
2022-08-24T09:47:17.511Z,11.87
2022-08-24T09:48:57.291Z,9.43
2022-08-24T09:50:37.060Z,7.82
2022-08-24T09:52:16.825Z,12.14
2022-08-24T09:53:56.598Z,6.21
2022-08-24T09:55:36.370Z,8.09
2022-08-24T09:57:16.140Z,6.74
2022-08-24T09:58:55.896Z,11.33
2022-08-24T10:00:35.679Z,10.26
2022-08-24T10:02:15.452Z,8.91
2022-08-24T10:03:55.222Z,13.51
2022-08-24T10:05:34.985Z,9.18
2022-08-24T10:07:14.765Z,8.64
2022-08-24T10:08:54.527Z,11.3
2022-08-24T10:10:34.297Z,8.91
2022-08-24T10:12:14.075Z,5.39
2022-08-24T10:13:53.842Z,7.28
2022-08-24T10:15:33.628Z,10.51
2022-08-24T10:17:13.378Z,9.43
2022-08-24T10:18:53.148Z,8.09
2022-08-24T10:20:32.912Z,7.01
2022-08-24T10:22:12.699Z,5.39
2022-08-24T10:23:52.463Z,11.05
2022-08-24T10:25:32.239Z,11.33
2022-08-24T10:27:12.002Z,8.89
2022-08-24T10:28:51.763Z,10.26
2022-08-24T10:30:31.546Z,8.35
2022-08-24T10:32:11.305Z,8.63
2022-08-24T10:33:51.088Z,10.24
2022-08-24T10:35:30.848Z,6.47
2022-08-24T10:37:10.618Z,11.07
2022-08-24T10:38:50.388Z,5.93
2022-08-24T10:42:09.941Z,8.35
2022-08-24T10:43:49.702Z,8.08
2022-08-24T10:45:29.488Z,6.47
2022-08-24T10:47:09.256Z,9.97
2022-08-24T10:48:49.017Z,10.51
2022-08-24T10:50:28.782Z,8.62
2022-08-24T10:52:08.597Z,8.63
2022-08-24T10:53:48.331Z,9.17
2022-08-24T10:55:28.097Z,5.93
2022-08-24T10:57:07.862Z,8.89
2022-08-24T11:00:27.404Z,5.65
2022-08-24T11:02:07.192Z,8.89
2022-08-24T11:03:46.953Z,8.35
2022-08-24T11:05:26.717Z,8.62
2022-08-24T11:07:06.485Z,7.27
2022-08-24T11:08:46.271Z,6.19
2022-08-24T11:10:26.041Z,9.42
2022-08-24T11:12:05.876Z,12.15
2022-08-24T11:13:45.563Z,10.25
2022-08-24T11:15:25.333Z,11.87
2022-08-24T11:17:05.126Z,10.25
2022-08-24T11:20:24.652Z,7.28
2022-08-24T11:22:04.437Z,9.43
2022-08-24T11:23:44.203Z,8.62
2022-08-24T11:25:23.959Z,9.7
2022-08-24T11:27:03.743Z,8.87
2022-08-24T11:28:43.503Z,8.89
2022-08-24T11:30:23.267Z,5.65
2022-08-24T11:32:03.050Z,5.92
2022-08-24T11:33:42.828Z,8.62
2022-08-24T11:35:22.584Z,9.16
2022-08-24T11:37:02.367Z,9.42
2022-08-24T11:38:42.138Z,7.81
2022-08-24T11:40:21.903Z,10.79
2022-08-24T11:42:01.675Z,7.01
2022-08-24T11:43:41.449Z,5.92
2022-08-24T11:45:21.221Z,6.19
2022-08-24T11:47:00.991Z,7
2022-08-24T11:48:40.745Z,8.6
2022-08-24T11:50:20.527Z,6.73
2022-08-24T11:52:00.303Z,7.54
2022-08-24T11:53:40.059Z,7.54
2022-08-24T11:55:19.827Z,9.7
2022-08-24T11:56:59.610Z,8.89
2022-08-24T11:58:39.383Z,8.08
2022-08-24T12:00:19.153Z,7.81
2022-08-24T12:01:58.925Z,7.54
2022-08-24T12:03:38.682Z,8.35
2022-08-24T12:05:18.469Z,7.27
2022-08-24T12:06:58.232Z,8.35
2022-08-24T12:10:17.767Z,6.73
2022-08-24T12:11:57.551Z,6.46
2022-08-24T12:13:37.322Z,7.26
2022-08-24T12:16:56.860Z,6.99
2022-08-24T12:20:16.403Z,7.26
2022-08-24T12:21:56.172Z,6.72
2022-08-24T12:23:35.928Z,6.18
2022-08-24T12:25:15.709Z,6.72
2022-08-24T12:26:55.476Z,6.98
2022-08-24T12:30:15.017Z,7.8
2022-08-24T12:31:54.787Z,8.34
2022-08-24T12:33:34.560Z,8.34
2022-08-24T12:35:14.323Z,8.34
2022-08-24T12:36:54.092Z,9.68
2022-08-24T12:38:33.855Z,9.7
2022-08-24T12:40:13.632Z,8.34
2022-08-24T12:41:53.406Z,8.62
2022-08-24T12:43:33.173Z,7
2022-08-24T12:45:12.935Z,8.6
2022-08-24T12:46:52.712Z,8.34
2022-08-24T12:48:32.476Z,8.07
2022-08-24T12:50:12.253Z,7.26
2022-08-24T12:51:52.016Z,7.8
2022-08-24T12:53:31.791Z,7.26
2022-08-24T12:55:11.576Z,6.45
2022-08-24T12:56:51.324Z,8.07
2022-08-24T12:58:31.102Z,6.99
2022-08-24T13:00:10.879Z,6.45
2022-08-24T13:01:50.644Z,6.99
2022-08-24T13:03:30.422Z,5.91
2022-08-24T13:05:10.187Z,7.26
2022-08-24T13:06:49.965Z,7.26
2022-08-24T13:08:29.750Z,6.18
2022-08-24T13:10:09.485Z,6.44
2022-08-24T13:11:49.265Z,7.53
2022-08-24T13:13:29.057Z,6.72
2022-08-24T13:15:08.815Z,6.99
2022-08-24T13:16:48.571Z,6.72
2022-08-24T13:20:08.121Z,6.45
2022-08-24T13:21:47.890Z,7.25
2022-08-24T13:23:27.660Z,6.18
2022-08-24T13:25:07.444Z,7.25
2022-08-24T13:26:47.205Z,7.25
2022-08-24T13:28:26.979Z,6.18
2022-08-24T13:30:06.741Z,6.98
2022-08-24T13:31:46.519Z,6.71
2022-08-24T13:33:26.284Z,6.71
2022-08-24T13:35:06.055Z,5.36
2022-08-24T13:36:45.833Z,4.55
2022-08-24T13:38:25.592Z,5.63
2022-08-24T13:40:05.367Z,5.63
2022-08-24T13:41:45.131Z,6.98
2022-08-24T13:45:04.686Z,6.71
2022-08-24T13:46:44.462Z,6.71
2022-08-24T13:50:03.997Z,6.71
2022-08-24T13:51:43.758Z,6.44
2022-08-24T13:53:23.537Z,6.17
2022-08-24T13:55:03.313Z,6.71
2022-08-24T13:56:43.075Z,6.98
2022-08-24T14:00:02.694Z,7.78
2022-08-24T14:01:42.393Z,6.98
2022-08-24T14:03:22.162Z,6.98
2022-08-24T14:05:01.925Z,6.71
2022-08-24T14:06:41.699Z,7.25
2022-08-24T14:10:01.251Z,6.98
2022-08-24T14:11:41.020Z,7.52
2022-08-24T14:13:20.774Z,7.79
2022-08-24T14:15:00.546Z,6.71
2022-08-24T14:16:40.320Z,6.71
2022-08-24T14:19:59.863Z,6.44
2022-08-24T14:21:39.634Z,5.63
2022-08-24T14:23:19.400Z,5.9
2022-08-24T14:24:59.182Z,6.17
2022-08-24T14:26:38.939Z,5.63
2022-08-24T14:28:18.709Z,6.17
2022-08-24T14:29:58.490Z,5.36
2022-08-24T14:31:38.263Z,5.63
2022-08-24T14:33:18.048Z,5.36
2022-08-24T14:34:57.792Z,5.36
2022-08-24T14:36:37.571Z,5.62
2022-08-24T14:38:17.339Z,5.35
2022-08-24T14:39:57.117Z,5.89
2022-08-24T14:41:36.880Z,5.89
2022-08-24T14:43:16.649Z,5.89
2022-08-24T14:44:56.417Z,6.16
2022-08-24T14:46:36.187Z,6.97
2022-08-24T14:48:15.967Z,6.71
2022-08-24T14:49:55.743Z,6.97
2022-08-24T14:51:35.511Z,5.9
2022-08-24T14:53:15.274Z,6.7
2022-08-24T14:54:55.036Z,6.16
2022-08-24T14:56:34.815Z,5.9
2022-08-24T14:58:14.582Z,6.7
2022-08-24T14:59:54.349Z,5.9
2022-08-24T15:01:34.123Z,6.17
2022-08-24T15:03:13.894Z,5.9
2022-08-24T15:04:53.668Z,6.17
2022-08-24T15:06:33.447Z,6.43
2022-08-24T15:08:13.212Z,6.7
2022-08-24T15:09:52.974Z,6.43
2022-08-24T15:11:32.751Z,6.17
2022-08-24T15:13:12.516Z,6.7
2022-08-24T15:14:52.294Z,5.9
2022-08-24T15:16:32.065Z,6.16
2022-08-24T15:19:51.595Z,5.89
2022-08-24T15:21:31.364Z,5.87
2022-08-24T15:23:11.140Z,6.16
2022-08-24T15:24:50.911Z,5.89
2022-08-24T15:26:30.683Z,6.43
2022-08-24T15:29:50.231Z,6.16
2022-08-24T15:31:30.006Z,5.89
2022-08-24T15:33:09.770Z,5.9
2022-08-24T15:34:49.552Z,6.43
2022-08-24T15:36:29.305Z,5.89
2022-08-24T15:38:09.072Z,5.63
2022-08-24T15:39:48.847Z,6.43
2022-08-24T15:41:28.631Z,6.97
2022-08-24T15:43:08.401Z,6.43
2022-08-24T15:44:48.166Z,6.97
2022-08-24T15:46:27.941Z,6.43
2022-08-24T15:48:07.713Z,6.7
2022-08-24T15:49:47.476Z,6.97
2022-08-24T15:51:27.261Z,6.7
2022-08-24T15:53:07.024Z,6.7
2022-08-24T15:54:46.793Z,5.36
2022-08-24T15:56:26.547Z,6.43
2022-08-24T15:58:06.328Z,6.16
2022-08-24T15:59:46.094Z,4.82
2022-08-24T16:01:25.865Z,5.62
2022-08-24T16:03:05.649Z,5.36
2022-08-24T16:04:45.412Z,5.09
2022-08-24T16:06:25.178Z,6.7
2022-08-24T16:08:04.951Z,6.43
2022-08-24T16:09:44.731Z,6.7
2022-08-24T16:11:24.497Z,6.16
2022-08-24T16:13:04.268Z,6.7
2022-08-24T16:14:44.038Z,6.43
2022-08-24T16:16:23.808Z,6.16
2022-08-24T16:18:03.582Z,6.43
2022-08-24T16:19:43.341Z,6.43
2022-08-24T16:21:23.121Z,6.7
2022-08-24T16:23:02.894Z,5.9
2022-08-24T16:24:42.656Z,6.16
2022-08-24T16:26:22.436Z,6.16
2022-08-24T16:28:02.204Z,6.16
2022-08-24T16:29:41.970Z,5.9
2022-08-24T16:31:21.748Z,5.63
2022-08-24T16:33:01.507Z,6.43
2022-08-24T16:34:41.279Z,6.16
2022-08-24T16:36:21.043Z,5.63
2022-08-24T16:39:40.594Z,3.73
2022-08-24T16:41:20.365Z,6.43
2022-08-24T16:43:00.138Z,6.16
2022-08-24T16:44:39.902Z,5.89
2022-08-24T16:46:19.669Z,5.62
2022-08-24T16:49:39.223Z,5.62
2022-08-24T16:51:19.007Z,6.16
2022-08-24T16:52:58.779Z,6.7
2022-08-24T16:54:38.524Z,5.63
2022-08-24T16:56:18.293Z,5.89
2022-08-24T16:57:58.069Z,5.89
2022-08-24T16:59:37.842Z,5.36
2022-08-24T17:01:17.607Z,5.89
2022-08-24T17:02:57.373Z,5.89
2022-08-24T17:04:37.142Z,5.89
2022-08-24T17:06:16.937Z,5.62
2022-08-24T17:07:56.691Z,5.36
2022-08-24T17:09:36.461Z,5.62
2022-08-24T17:11:16.243Z,5.62
2022-08-24T17:12:55.997Z,5.08
2022-08-24T17:14:35.793Z,5.61
2022-08-24T17:16:15.537Z,6.96
2022-08-24T17:17:55.314Z,6.42
2022-08-24T17:19:35.084Z,6.42
2022-08-24T17:21:14.866Z,5.88
2022-08-24T17:22:54.627Z,6.15
2022-08-24T17:24:34.409Z,6.15
2022-08-24T17:26:14.177Z,5.89
2022-08-24T17:27:53.950Z,5.88
2022-08-24T17:29:33.703Z,5.35
2022-08-24T17:31:13.480Z,6.15
2022-08-24T17:32:53.248Z,6.15
2022-08-24T17:34:33.009Z,6.15
2022-08-24T17:36:12.795Z,5.88
2022-08-24T17:37:52.571Z,5.88
2022-08-24T17:39:32.331Z,6.15
2022-08-24T17:41:12.128Z,6.42
2022-08-24T17:42:51.881Z,5.62
2022-08-24T17:44:31.643Z,5.88
2022-08-24T17:46:11.417Z,6.15
2022-08-24T17:47:51.194Z,6.42
2022-08-24T17:49:30.957Z,4.81
2022-08-24T17:51:10.727Z,3.47
2022-08-24T17:52:50.492Z,2.4
2022-08-24T17:54:30.259Z,1.33
2022-08-24T17:56:10.044Z,1.05
2022-08-24T17:57:49.796Z,0.52
2022-08-24T17:59:29.593Z,0.26
2022-08-24T18:01:09.350Z,0
2022-08-24T18:02:49.099Z,0
2022-08-24T18:04:28.871Z,0
2022-08-24T18:06:08.640Z,0
2022-08-24T18:09:28.171Z,0
2022-08-24T18:11:07.957Z,0
2022-08-24T18:12:47.716Z,0
2022-08-24T18:14:27.469Z,0
2022-08-24T18:16:07.240Z,0
2022-08-24T18:17:47.016Z,0
2022-08-24T18:19:26.789Z,0
2022-08-24T18:21:06.553Z,0
2022-08-24T18:22:46.313Z,0
2022-08-24T18:24:26.078Z,0
2022-08-24T18:26:05.851Z,0
2022-08-24T18:27:45.611Z,0
2022-08-24T18:29:25.380Z,0
2022-08-24T18:31:05.152Z,0
2022-08-24T18:32:44.928Z,0
2022-08-24T18:34:24.682Z,0
2022-08-24T18:36:04.459Z,0
2022-08-24T18:37:44.232Z,0
2022-08-24T18:39:24.003Z,0
2022-08-24T18:41:03.767Z,0
2022-08-24T18:42:43.531Z,0
2022-08-24T18:44:23.307Z,0
2022-08-24T18:46:03.068Z,0
2022-08-24T18:47:42.833Z,0
2022-08-24T18:49:22.597Z,0
2022-08-24T18:51:02.371Z,0
2022-08-24T18:52:42.132Z,0
2022-08-24T18:54:21.909Z,0
2022-08-24T18:56:01.661Z,0
2022-08-24T18:57:41.433Z,0
2022-08-24T18:59:21.208Z,0
2022-08-24T19:01:00.977Z,0
2022-08-24T19:02:40.730Z,0
2022-08-24T19:04:20.514Z,0
2022-08-24T19:06:00.286Z,0
2022-08-24T19:07:40.054Z,0
2022-08-24T19:09:19.821Z,0
2022-08-24T19:10:59.592Z,0
2022-08-24T19:12:39.356Z,0
2022-08-24T19:14:19.117Z,0
2022-08-24T19:15:58.882Z,0
2022-08-24T19:17:38.647Z,0
2022-08-24T19:19:18.423Z,0
2022-08-24T19:20:58.192Z,0
2022-08-24T19:22:37.955Z,0
2022-08-24T19:24:17.761Z,0
2022-08-24T19:25:57.488Z,0
2022-08-24T19:27:37.258Z,0
2022-08-24T19:29:17.017Z,0
2022-08-24T19:30:56.799Z,0
2022-08-24T19:32:36.563Z,0
2022-08-24T19:34:16.343Z,0
2022-08-24T19:35:56.101Z,0
2022-08-24T19:37:35.855Z,0
2022-08-24T19:39:15.635Z,0
2022-08-24T19:40:55.403Z,0
2022-08-24T19:42:35.163Z,0
2022-08-24T19:44:14.935Z,0
2022-08-24T19:45:54.709Z,0
2022-08-24T19:47:34.469Z,0
2022-08-24T19:49:14.231Z,0
2022-08-24T19:50:54.058Z,0
2022-08-24T19:52:33.773Z,0
2022-08-24T19:54:13.532Z,0
2022-08-24T19:55:53.314Z,0
2022-08-24T19:57:33.076Z,0
2022-08-24T19:59:12.846Z,0
2022-08-24T20:00:52.614Z,0
2022-08-24T20:02:32.377Z,0
2022-08-24T20:04:12.136Z,0
2022-08-24T20:05:51.899Z,0
2022-08-24T20:07:31.670Z,0
2022-08-24T20:09:11.451Z,0
2022-08-24T20:10:51.220Z,0
2022-08-24T20:12:30.984Z,0
2022-08-24T20:14:10.758Z,0
2022-08-24T20:15:50.533Z,0
2022-08-24T20:17:30.279Z,0
2022-08-24T20:19:10.065Z,0
2022-08-24T20:20:49.839Z,0
2022-08-24T20:22:29.577Z,0
2022-08-24T20:24:09.357Z,0
2022-08-24T20:25:49.123Z,0
2022-08-24T20:29:08.654Z,0
2022-08-24T20:30:48.431Z,0
2022-08-24T20:32:28.207Z,0
2022-08-24T20:34:07.964Z,0
2022-08-24T20:35:47.726Z,0
2022-08-24T20:37:27.489Z,0
2022-08-24T20:39:07.267Z,0
2022-08-24T20:40:47.026Z,0
2022-08-24T20:42:26.800Z,0
2022-08-24T20:44:06.560Z,0
2022-08-24T20:45:46.338Z,0
2022-08-24T20:47:26.106Z,0
2022-08-24T20:49:05.869Z,0
2022-08-24T20:50:45.647Z,0
2022-08-24T20:52:25.423Z,0
2022-08-24T20:54:05.175Z,0
2022-08-24T20:55:44.951Z,0
2022-08-24T20:57:24.701Z,0
2022-08-24T20:59:04.482Z,0
2022-08-24T21:00:44.247Z,0
2022-08-24T21:02:24.014Z,0
2022-08-24T21:04:03.780Z,0
2022-08-24T21:05:43.557Z,0
2022-08-24T21:07:23.312Z,0
2022-08-24T21:10:42.848Z,0
2022-08-24T21:12:22.618Z,0
2022-08-24T21:14:02.374Z,0
2022-08-24T21:15:42.148Z,0
2022-08-24T21:17:21.912Z,0
2022-08-24T21:19:01.683Z,0
2022-08-24T21:20:41.451Z,0
2022-08-24T21:22:21.223Z,0
2022-08-24T21:24:00.984Z,0
2022-08-24T21:25:40.754Z,0
2022-08-24T21:27:20.524Z,0
2022-08-24T21:29:00.294Z,0
2022-08-24T21:30:40.061Z,0
2022-08-24T21:32:19.837Z,0
2022-08-24T21:33:59.601Z,0
2022-08-24T21:35:39.359Z,0
2022-08-24T21:38:58.890Z,0
2022-08-24T21:40:38.659Z,0
2022-08-24T21:42:18.427Z,0
2022-08-24T21:45:37.975Z,0
2022-08-24T21:47:17.731Z,0
2022-08-24T21:48:57.507Z,0
2022-08-24T21:50:37.259Z,0
2022-08-24T21:52:17.043Z,0
2022-08-24T21:53:56.795Z,0
2022-08-24T21:55:36.564Z,0
2022-08-24T21:57:16.347Z,0
2022-08-24T21:58:56.122Z,0
2022-08-24T22:00:35.869Z,0
2022-08-24T22:02:15.650Z,0
2022-08-24T22:03:55.405Z,0
2022-08-24T22:05:35.167Z,0
2022-08-24T22:07:14.934Z,0
2022-08-24T22:08:54.710Z,0
2022-08-24T22:10:34.469Z,0
2022-08-24T22:12:14.237Z,0
2022-08-24T22:13:54.015Z,0
2022-08-24T22:15:33.788Z,0
2022-08-24T22:17:13.552Z,0
2022-08-24T22:18:53.320Z,0
2022-08-24T22:20:33.075Z,0
2022-08-24T22:22:12.843Z,0
2022-08-24T22:23:52.628Z,0
2022-08-24T22:25:32.387Z,0
2022-08-24T22:27:12.151Z,0
2022-08-24T22:28:51.929Z,0
2022-08-24T22:30:31.689Z,0
2022-08-24T22:32:11.474Z,0
2022-08-24T22:33:51.228Z,0
2022-08-24T22:35:30.997Z,0
2022-08-24T22:37:10.754Z,0
2022-08-24T22:38:50.527Z,0
2022-08-24T22:40:30.293Z,0
2022-08-24T22:42:10.074Z,0
2022-08-24T22:45:29.603Z,0
2022-08-24T22:48:49.130Z,0
2022-08-24T22:50:28.891Z,0
2022-08-24T22:53:48.428Z,0
2022-08-24T22:55:28.264Z,0
2022-08-24T22:57:07.966Z,0
2022-08-24T22:58:47.747Z,0
2022-08-24T23:00:27.507Z,0
2022-08-24T23:02:07.301Z,0
2022-08-24T23:03:47.040Z,0
2022-08-24T23:05:26.811Z,0
2022-08-24T23:07:06.593Z,0
2022-08-24T23:08:46.343Z,0
2022-08-24T23:10:26.099Z,0
2022-08-24T23:12:05.877Z,0
2022-08-24T23:13:45.654Z,0
2022-08-24T23:15:25.421Z,0
2022-08-24T23:17:05.187Z,0
2022-08-24T23:18:44.950Z,0
2022-08-24T23:20:24.724Z,0
2022-08-24T23:22:04.491Z,0
2022-08-24T23:23:44.255Z,0
2022-08-24T23:25:24.023Z,0
2022-08-24T23:27:03.783Z,0
2022-08-24T23:28:43.549Z,0
2022-08-24T23:30:23.313Z,0
2022-08-24T23:32:03.077Z,0
2022-08-24T23:33:42.856Z,0
2022-08-24T23:35:22.626Z,0
2022-08-24T23:37:02.403Z,0
2022-08-24T23:38:42.163Z,0
2022-08-24T23:40:21.927Z,0
2022-08-24T23:42:01.693Z,0
2022-08-24T23:43:41.461Z,0
2022-08-24T23:45:21.225Z,0
2022-08-24T23:47:01.011Z,0
2022-08-24T23:48:40.754Z,0
2022-08-24T23:50:20.534Z,0
2022-08-24T23:52:00.304Z,0
2022-08-24T23:53:40.058Z,0
2022-08-24T23:55:19.845Z,0
2022-08-24T23:56:59.607Z,0
2022-08-24T23:58:39.361Z,0
